Time;durP1;ratioP1;P1;durP2;ratioP2;P2;SDS_P1;SDS_P2;PMS_P1;PMS_P2;Temp;Humidity;BMP_temperature;BMP_pressure;BME280_temperature;BME280_humidity;BME280_pressure;Samples;Min_cycle;Max_cycle;Signal;HPM_P1;HPM_P2
2023/01/23 00:00:13;;;;;;;;;;;2.40;99.90;;;;;;5105543;27;19987;-79
2023/01/23 00:02:38;;;;;;;;;;;2.40;99.90;;;;;;5124004;27;19941;-79
2023/01/23 00:05:04;;;;;;;;;;;2.40;99.90;;;;;;5123441;27;19924;-80
2023/01/23 00:07:30;;;;;;;;;;;2.40;99.90;;;;;;5121700;27;20431;-79
2023/01/23 00:09:55;;;;;;;;;;;2.40;99.90;;;;;;5141528;27;19924;-80
2023/01/23 00:12:21;;;;;;;;;;;2.30;99.90;;;;;;5102532;28;19982;-79
2023/01/23 00:14:46;;;;;;;;;;;2.40;99.90;;;;;;5124367;27;20034;-79
2023/01/23 00:17:12;;;;;;;;;;;2.30;99.90;;;;;;5122343;27;19973;-79
2023/01/23 00:19:37;;;;;;;;;;;2.40;99.90;;;;;;5121115;27;19938;-79
2023/01/23 00:22:03;;;;;;;;;;;2.40;99.90;;;;;;5141592;27;20015;-79
2023/01/23 00:24:29;;;;;;;;;;;2.40;99.90;;;;;;5106369;27;20377;-79
2023/01/23 00:26:54;;;;;;;;;;;2.40;99.90;;;;;;5123392;27;19927;-80
2023/01/23 00:29:20;;;;;;;;;;;2.40;99.90;;;;;;5121343;27;19942;-79
2023/01/23 00:31:45;;;;;;;;;;;2.40;99.90;;;;;;5124252;27;19965;-79
2023/01/23 00:34:12;;;;;;;;;;;2.40;99.90;;;;;;5111240;27;19987;-79
2023/01/23 00:36:40;;;;;;;;;;;2.30;99.90;;;;;;5123070;27;19969;-79
2023/01/23 00:39:07;;;;;;;;;;;2.30;99.90;;;;;;5141193;27;20262;-80
2023/01/23 00:41:33;;;;;;;;;;;2.30;99.90;;;;;;5111743;27;19923;-79
2023/01/23 00:43:58;;;;;;;;;;;2.30;99.90;;;;;;5102742;28;19930;-79
2023/01/23 00:46:24;;;;;;;;;;;2.30;99.90;;;;;;5116134;28;20022;-79
2023/01/23 00:48:50;;;;;;;;;;;2.40;99.90;;;;;;5093326;28;20347;-79
2023/01/23 00:51:16;;;;;;;;;;;2.40;99.90;;;;;;5111410;27;19928;-79
2023/01/23 00:53:42;;;;;;;;;;;2.30;99.90;;;;;;5123246;27;19923;-79
2023/01/23 00:56:08;;;;;;;;;;;2.30;99.90;;;;;;5102042;27;19924;-79
2023/01/23 00:58:33;;;;;;;;;;;2.30;99.90;;;;;;5141465;27;19949;-79
2023/01/23 01:00:59;;;;;;;;;;;2.40;99.90;;;;;;5139667;27;19991;-79
2023/01/23 01:03:24;;;;;;;;;;;2.30;99.90;;;;;;5119881;27;19923;-79
2023/01/23 01:05:51;;;;;;;;;;;2.30;99.90;;;;;;5123088;27;19927;-80
2023/01/23 01:08:16;;;;;;;;;;;2.40;99.90;;;;;;5121055;27;19931;-79
2023/01/23 01:10:42;;;;;;;;;;;2.40;99.90;;;;;;5106154;27;19968;-79
2023/01/23 01:13:08;;;;;;;;;;;2.40;99.90;;;;;;5120199;27;19976;-80
2023/01/23 01:15:34;;;;;;;;;;;2.40;99.90;;;;;;5108263;27;19973;-79
2023/01/23 01:18:00;;;;;;;;;;;2.40;99.90;;;;;;5122171;27;19924;-79
2023/01/23 01:20:26;;;;;;;;;;;2.30;99.90;;;;;;5101430;28;19931;-79
2023/01/23 01:22:52;;;;;;;;;;;2.40;99.90;;;;;;5129469;27;20380;-80
2023/01/23 01:25:18;;;;;;;;;;;2.30;99.90;;;;;;5104561;27;20404;-80
2023/01/23 01:27:44;;;;;;;;;;;2.30;99.90;;;;;;5120187;27;19927;-79
2023/01/23 01:30:10;;;;;;;;;;;2.40;99.90;;;;;;5110876;27;19973;-80
2023/01/23 01:32:36;;;;;;;;;;;2.30;99.90;;;;;;5090254;27;19924;-79
2023/01/23 01:35:03;;;;;;;;;;;2.40;99.90;;;;;;5114735;27;19931;-80
2023/01/23 01:37:31;;;;;;;;;;;2.40;99.90;;;;;;5109157;27;19927;-79
2023/01/23 01:39:56;;;;;;;;;;;2.40;99.90;;;;;;5107419;28;19924;-79
2023/01/23 01:42:22;;;;;;;;;;;2.40;99.90;;;;;;5113886;27;19985;-79
2023/01/23 01:44:50;;;;;;;;;;;2.40;99.90;;;;;;5132762;27;20362;-80
2023/01/23 01:47:16;;;;;;;;;;;2.40;99.90;;;;;;5112090;27;19987;-79
2023/01/23 01:49:42;;;;;;;;;;;2.40;99.90;;;;;;5096887;28;19928;-79
2023/01/23 01:52:09;;;;;;;;;;;2.40;99.90;;;;;;5113995;28;19934;-79
2023/01/23 01:54:42;;;;;;;;;;;2.40;99.90;;;;;;5096857;28;19930;-79
2023/01/23 01:57:11;;;;;;;;;;;2.40;99.90;;;;;;5110593;28;19924;-79
2023/01/23 01:59:43;;;;;;;;;;;2.40;99.90;;;;;;5115005;28;19934;-79
2023/01/23 02:02:10;;;;;;;;;;;2.40;99.90;;;;;;5130476;28;19989;-79
2023/01/23 02:04:39;;;;;;;;;;;2.40;99.90;;;;;;5115969;27;20424;-79
2023/01/23 02:07:08;;;;;;;;;;;2.40;99.90;;;;;;5113869;27;19952;-79
2023/01/23 02:09:34;;;;;;;;;;;2.30;99.90;;;;;;5109836;27;20286;-79
2023/01/23 02:12:00;;;;;;;;;;;2.40;99.90;;;;;;5084836;27;19930;-79
2023/01/23 02:14:26;;;;;;;;;;;2.40;99.90;;;;;;5140354;27;19923;-79
2023/01/23 02:16:54;;;;;;;;;;;2.40;99.90;;;;;;5116017;27;19976;-79
2023/01/23 02:19:30;;;;;;;;;;;2.40;99.90;;;;;;5115493;27;21165;-79
2023/01/23 02:21:59;;;;;;;;;;;2.40;99.90;;;;;;5117033;27;19934;-80
2023/01/23 02:24:30;;;;;;;;;;;2.40;99.90;;;;;;5110832;27;19959;-79
2023/01/23 02:26:56;;;;;;;;;;;2.40;99.90;;;;;;5118539;27;19923;-80
2023/01/23 02:29:21;;;;;;;;;;;2.40;99.90;;;;;;5118201;27;19923;-80
2023/01/23 02:31:48;;;;;;;;;;;2.40;99.90;;;;;;5112743;27;20354;-80
2023/01/23 02:34:14;;;;;;;;;;;2.40;99.90;;;;;;5131919;27;19952;-79
2023/01/23 02:36:41;;;;;;;;;;;2.40;99.90;;;;;;5114017;27;20429;-80
2023/01/23 02:39:07;;;;;;;;;;;2.40;99.90;;;;;;5118138;27;19955;-80
2023/01/23 02:41:34;;;;;;;;;;;2.40;99.90;;;;;;5114866;27;19945;-80
2023/01/23 02:44:01;;;;;;;;;;;2.40;99.90;;;;;;5110880;27;20055;-80
2023/01/23 02:46:27;;;;;;;;;;;2.40;99.90;;;;;;5111906;27;19946;-79
2023/01/23 02:48:53;;;;;;;;;;;2.40;99.90;;;;;;5115814;27;19924;-79
2023/01/23 02:51:20;;;;;;;;;;;2.50;99.90;;;;;;5117342;27;19931;-80
2023/01/23 02:53:46;;;;;;;;;;;2.40;99.90;;;;;;5115473;27;19980;-80
2023/01/23 02:56:12;;;;;;;;;;;2.40;99.90;;;;;;5116921;27;19976;-80
2023/01/23 03:01:23;;;;;;;;;;;2.40;99.90;;;;;;5115033;27;20043;-80
2023/01/23 03:03:50;;;;;;;;;;;2.40;99.90;;;;;;5137914;27;19949;-80
2023/01/23 03:06:16;;;;;;;;;;;2.40;99.90;;;;;;5114885;28;19991;-80
2023/01/23 03:08:46;;;;;;;;;;;2.40;99.90;;;;;;5103833;27;19927;-80
2023/01/23 03:11:12;;;;;;;;;;;2.40;99.90;;;;;;5125468;27;20014;-80
2023/01/23 03:13:38;;;;;;;;;;;2.40;99.90;;;;;;5113653;27;19978;-79
2023/01/23 03:16:04;;;;;;;;;;;2.40;99.90;;;;;;5113275;27;19927;-80
2023/01/23 03:18:30;;;;;;;;;;;2.40;99.90;;;;;;5105589;27;19968;-79
2023/01/23 03:21:00;;;;;;;;;;;2.50;99.90;;;;;;5105462;27;19927;-79
2023/01/23 03:23:25;;;;;;;;;;;2.50;99.90;;;;;;5140667;27;19974;-80
2023/01/23 03:25:57;;;;;;;;;;;2.50;99.90;;;;;;5106076;27;19931;-80
2023/01/23 03:31:14;;;;;;;;;;;2.50;99.90;;;;;;5124492;27;19924;-80
2023/01/23 03:33:42;;;;;;;;;;;2.50;99.90;;;;;;5138354;27;19972;-80
2023/01/23 03:36:11;;;;;;;;;;;2.50;99.90;;;;;;5119326;27;19930;-79
2023/01/23 03:38:36;;;;;;;;;;;2.50;99.90;;;;;;5122388;27;20438;-80
2023/01/23 03:43:46;;;;;;;;;;;2.50;99.90;;;;;;5122884;27;19938;-79
2023/01/23 03:46:12;;;;;;;;;;;2.50;99.90;;;;;;5102978;27;19927;-79
2023/01/23 03:48:38;;;;;;;;;;;2.50;99.90;;;;;;5123160;27;20023;-79
2023/01/23 03:51:04;;;;;;;;;;;2.50;99.90;;;;;;5119745;27;19992;-79
2023/01/23 03:53:29;;;;;;;;;;;2.50;99.90;;;;;;5095878;27;19923;-80
2023/01/23 03:55:55;;;;;;;;;;;2.50;99.90;;;;;;5120621;27;19923;-79
2023/01/23 03:58:21;;;;;;;;;;;2.50;99.90;;;;;;5116959;27;19927;-79
2023/01/23 04:00:46;;;;;;;;;;;2.50;99.90;;;;;;5075555;27;19931;-79
2023/01/23 04:03:12;;;;;;;;;;;2.50;99.90;;;;;;5123634;27;19967;-79
2023/01/23 04:05:37;;;;;;;;;;;2.50;99.90;;;;;;5121152;27;19935;-79
2023/01/23 04:08:03;;;;;;;;;;;2.50;99.90;;;;;;5140701;27;19962;-80
2023/01/23 04:10:28;;;;;;;;;;;2.50;99.90;;;;;;5103681;28;19924;-79
2023/01/23 04:12:54;;;;;;;;;;;2.50;99.90;;;;;;5122472;27;20014;-79
2023/01/23 04:15:20;;;;;;;;;;;2.50;99.90;;;;;;5105942;27;19944;-79
2023/01/23 04:17:45;;;;;;;;;;;2.50;99.90;;;;;;5102974;27;19923;-79
2023/01/23 04:20:12;;;;;;;;;;;2.50;99.90;;;;;;5123468;27;19927;-79
2023/01/23 04:22:38;;;;;;;;;;;2.50;99.90;;;;;;5123661;27;19938;-79
2023/01/23 04:25:03;;;;;;;;;;;2.50;99.90;;;;;;5113663;27;19923;-79
2023/01/23 04:27:29;;;;;;;;;;;2.50;99.90;;;;;;5119820;28;20710;-79
2023/01/23 04:29:55;;;;;;;;;;;2.60;99.90;;;;;;5122468;27;19930;-79
2023/01/23 04:32:20;;;;;;;;;;;2.50;99.90;;;;;;5123958;27;19927;-79
2023/01/23 04:34:46;;;;;;;;;;;2.60;99.90;;;;;;5122700;27;19934;-79
2023/01/23 04:37:12;;;;;;;;;;;2.60;99.90;;;;;;5119235;27;20035;-79
2023/01/23 04:39:37;;;;;;;;;;;2.60;99.90;;;;;;5141778;27;19979;-79
2023/01/23 04:42:03;;;;;;;;;;;2.60;99.90;;;;;;5122470;27;20426;-79
2023/01/23 04:44:29;;;;;;;;;;;2.60;99.90;;;;;;5103079;28;19987;-79
2023/01/23 04:46:54;;;;;;;;;;;2.60;99.90;;;;;;5104866;27;19942;-79
2023/01/23 04:49:20;;;;;;;;;;;2.60;99.90;;;;;;5138700;27;19934;-79
2023/01/23 04:51:47;;;;;;;;;;;2.60;99.90;;;;;;5122549;27;19923;-79
2023/01/23 04:54:12;;;;;;;;;;;2.60;99.90;;;;;;5105869;27;19927;-80
2023/01/23 04:56:38;;;;;;;;;;;2.60;99.90;;;;;;5122714;27;20023;-79
2023/01/23 04:59:04;;;;;;;;;;;2.60;99.90;;;;;;5081091;28;19924;-80
2023/01/23 05:01:30;;;;;;;;;;;2.60;99.90;;;;;;5109482;28;19958;-79
2023/01/23 05:03:55;;;;;;;;;;;2.60;99.90;;;;;;5121902;27;19927;-79
2023/01/23 05:06:21;;;;;;;;;;;2.60;99.90;;;;;;5123252;27;19927;-79
2023/01/23 05:08:47;;;;;;;;;;;2.60;99.90;;;;;;5131648;27;19923;-80
2023/01/23 05:11:12;;;;;;;;;;;2.60;99.90;;;;;;5105550;27;19945;-79
2023/01/23 05:13:38;;;;;;;;;;;2.60;99.90;;;;;;5122167;27;19970;-79
2023/01/23 05:16:03;;;;;;;;;;;2.60;99.90;;;;;;5105483;27;19931;-79
2023/01/23 05:18:29;;;;;;;;;;;2.60;99.90;;;;;;5119313;28;19925;-79
2023/01/23 05:20:54;;;;;;;;;;;2.60;99.90;;;;;;5133395;27;20373;-79
2023/01/23 05:23:20;;;;;;;;;;;2.60;99.90;;;;;;5140180;27;19943;-79
2023/01/23 05:25:45;;;;;;;;;;;2.60;99.90;;;;;;5095520;28;19923;-79
2023/01/23 05:28:11;;;;;;;;;;;2.60;99.90;;;;;;5122184;27;19953;-79
2023/01/23 05:30:37;;;;;;;;;;;2.50;99.90;;;;;;5119420;27;19928;-79
2023/01/23 05:33:02;;;;;;;;;;;2.60;99.90;;;;;;5119204;27;19971;-79
2023/01/23 05:35:28;;;;;;;;;;;2.60;99.90;;;;;;5118998;27;20026;-78
2023/01/23 05:37:54;;;;;;;;;;;2.60;99.90;;;;;;5120862;27;19969;-79
2023/01/23 05:40:20;;;;;;;;;;;2.50;99.90;;;;;;5122382;27;19927;-79
2023/01/23 05:42:46;;;;;;;;;;;2.50;99.90;;;;;;5130861;27;19991;-79
2023/01/23 05:45:11;;;;;;;;;;;2.50;99.90;;;;;;5122661;28;19949;-79
2023/01/23 05:47:37;;;;;;;;;;;2.50;99.90;;;;;;5104614;27;20444;-79
2023/01/23 05:50:04;;;;;;;;;;;2.50;99.90;;;;;;5122053;27;20331;-79
2023/01/23 05:52:29;;;;;;;;;;;2.60;99.90;;;;;;5119647;28;19923;-79
2023/01/23 05:54:55;;;;;;;;;;;2.50;99.90;;;;;;5121148;28;19930;-79
2023/01/23 05:57:20;;;;;;;;;;;2.50;99.90;;;;;;5141009;28;19982;-79
2023/01/23 05:59:46;;;;;;;;;;;2.50;99.90;;;;;;5103961;28;19931;-79
2023/01/23 06:02:11;;;;;;;;;;;2.50;99.90;;;;;;5122216;28;19987;-79
2023/01/23 06:04:37;;;;;;;;;;;2.50;99.90;;;;;;5119698;28;19923;-80
2023/01/23 06:07:03;;;;;;;;;;;2.50;99.90;;;;;;5121382;28;19948;-79
2023/01/23 06:09:28;;;;;;;;;;;2.50;99.90;;;;;;5139793;28;19980;-79
2023/01/23 06:11:54;;;;;;;;;;;2.50;99.90;;;;;;5104807;28;20379;-79
2023/01/23 06:14:19;;;;;;;;;;;2.50;99.90;;;;;;5120601;28;19924;-79
2023/01/23 06:16:45;;;;;;;;;;;2.50;99.90;;;;;;5100549;28;19969;-79
2023/01/23 06:19:11;;;;;;;;;;;2.50;99.90;;;;;;5136026;28;19927;-79
2023/01/23 06:21:36;;;;;;;;;;;2.40;99.90;;;;;;5120737;28;19923;-79
2023/01/23 06:24:02;;;;;;;;;;;2.50;99.90;;;;;;5104105;28;19924;-79
2023/01/23 06:26:28;;;;;;;;;;;2.40;99.90;;;;;;5117687;28;20014;-79
2023/01/23 06:28:53;;;;;;;;;;;2.40;99.90;;;;;;5121023;28;19923;-79
2023/01/23 06:31:19;;;;;;;;;;;2.50;99.90;;;;;;5118134;28;19963;-80
2023/01/23 06:33:48;;;;;;;;;;;2.40;99.90;;;;;;5103685;28;19923;-80
2023/01/23 06:36:13;;;;;;;;;;;2.40;99.90;;;;;;5094474;28;19924;-80
2023/01/23 06:38:39;;;;;;;;;;;2.40;99.90;;;;;;5120225;28;19935;-79
2023/01/23 06:41:04;;;;;;;;;;;2.40;99.90;;;;;;5121796;28;19954;-79
2023/01/23 06:43:30;;;;;;;;;;;2.40;99.90;;;;;;5120911;28;19927;-80
2023/01/23 06:45:55;;;;;;;;;;;2.40;99.90;;;;;;5092041;28;19923;-80
2023/01/23 06:48:21;;;;;;;;;;;2.40;99.90;;;;;;5129831;28;19927;-80
2023/01/23 06:50:47;;;;;;;;;;;2.50;99.90;;;;;;5116449;27;19931;-79
2023/01/23 06:53:13;;;;;;;;;;;2.40;99.90;;;;;;5115379;27;19931;-80
2023/01/23 06:55:39;;;;;;;;;;;2.40;99.90;;;;;;5082542;27;19923;-79
2023/01/23 06:58:05;;;;;;;;;;;2.40;99.90;;;;;;5120491;27;19965;-79
2023/01/23 07:00:33;;;;;;;;;;;2.40;99.90;;;;;;5101222;27;19957;-80
2023/01/23 07:03:02;;;;;;;;;;;2.40;99.90;;;;;;5117093;27;19973;-81
2023/01/23 07:05:28;;;;;;;;;;;2.40;99.90;;;;;;5109209;27;19935;-81
2023/01/23 07:07:54;;;;;;;;;;;2.40;99.90;;;;;;5099372;27;19924;-80
2023/01/23 07:10:21;;;;;;;;;;;2.50;99.90;;;;;;5096005;27;20012;-80
2023/01/23 07:12:47;;;;;;;;;;;2.40;99.90;;;;;;5133014;27;19934;-80
2023/01/23 07:15:13;;;;;;;;;;;2.40;99.90;;;;;;5134901;27;20888;-81
2023/01/23 07:17:38;;;;;;;;;;;2.40;99.90;;;;;;5120004;27;19946;-81
2023/01/23 07:20:04;;;;;;;;;;;2.40;99.90;;;;;;5132150;27;19974;-81
2023/01/23 07:22:30;;;;;;;;;;;2.40;99.90;;;;;;5122699;27;20045;-80
2023/01/23 07:24:55;;;;;;;;;;;2.40;99.90;;;;;;5130685;27;19923;-80
2023/01/23 07:27:21;;;;;;;;;;;2.40;99.90;;;;;;5124546;27;19927;-81
2023/01/23 07:29:47;;;;;;;;;;;2.40;99.90;;;;;;5131796;27;19927;-80
2023/01/23 07:32:12;;;;;;;;;;;2.40;99.90;;;;;;5117960;27;19964;-81
2023/01/23 07:34:38;;;;;;;;;;;2.40;99.90;;;;;;5099921;27;20004;-80
2023/01/23 07:37:03;;;;;;;;;;;2.40;99.90;;;;;;5114807;27;19923;-80
2023/01/23 07:39:29;;;;;;;;;;;2.40;99.90;;;;;;5099518;27;19933;-81
2023/01/23 07:41:54;;;;;;;;;;;2.40;99.90;;;;;;5118334;27;19935;-80
2023/01/23 07:44:20;;;;;;;;;;;2.40;99.90;;;;;;5101659;27;19932;-80
2023/01/23 07:46:46;;;;;;;;;;;2.40;99.90;;;;;;5095886;27;19962;-80
2023/01/23 07:49:12;;;;;;;;;;;2.40;99.90;;;;;;5120567;27;19923;-80
2023/01/23 07:51:38;;;;;;;;;;;2.40;99.90;;;;;;5119911;27;19931;-80
2023/01/23 07:54:03;;;;;;;;;;;2.40;99.90;;;;;;5141352;27;19927;-80
2023/01/23 07:56:29;;;;;;;;;;;2.40;99.90;;;;;;5122639;27;20378;-80
2023/01/23 07:58:54;;;;;;;;;;;2.40;99.90;;;;;;5123009;27;19924;-80
2023/01/23 08:01:20;;;;;;;;;;;2.40;99.90;;;;;;5122913;27;19927;-79
2023/01/23 08:03:46;;;;;;;;;;;2.40;99.90;;;;;;5120736;27;19923;-79
2023/01/23 08:06:12;;;;;;;;;;;2.40;99.90;;;;;;5124097;27;19924;-80
2023/01/23 08:08:37;;;;;;;;;;;2.40;99.90;;;;;;5121598;27;19971;-80
2023/01/23 08:11:04;;;;;;;;;;;2.40;99.90;;;;;;5135247;27;19923;-80
2023/01/23 08:13:29;;;;;;;;;;;2.50;99.90;;;;;;5090909;28;20053;-80
2023/01/23 08:15:56;;;;;;;;;;;2.40;99.90;;;;;;5118765;27;19967;-80
2023/01/23 08:18:22;;;;;;;;;;;2.40;99.90;;;;;;5119562;27;19928;-80
2023/01/23 08:20:51;;;;;;;;;;;2.50;99.90;;;;;;5109958;27;19939;-80
2023/01/23 08:23:17;;;;;;;;;;;2.50;99.90;;;;;;5115212;27;19930;-80
2023/01/23 08:25:42;;;;;;;;;;;2.50;99.90;;;;;;5105912;27;20007;-80
2023/01/23 08:28:08;;;;;;;;;;;2.50;99.90;;;;;;5113005;27;20055;-80
2023/01/23 08:30:33;;;;;;;;;;;2.50;99.90;;;;;;5104693;27;19930;-80
2023/01/23 08:32:59;;;;;;;;;;;2.50;99.90;;;;;;5122154;27;19948;-80
2023/01/23 08:35:25;;;;;;;;;;;2.50;99.90;;;;;;5101137;27;19930;-80
2023/01/23 08:37:50;;;;;;;;;;;2.60;99.90;;;;;;5099171;28;20398;-80
2023/01/23 08:40:16;;;;;;;;;;;2.60;99.90;;;;;;5098378;28;19924;-79
2023/01/23 08:42:41;;;;;;;;;;;2.60;99.90;;;;;;5080329;28;19928;-80
2023/01/23 08:45:07;;;;;;;;;;;2.60;99.90;;;;;;5095808;28;19997;-80
2023/01/23 08:47:35;;;;;;;;;;;2.60;99.90;;;;;;5078492;28;19924;-80
2023/01/23 08:50:01;;;;;;;;;;;2.60;99.90;;;;;;5097902;28;20177;-80
2023/01/23 08:52:26;;;;;;;;;;;2.60;99.90;;;;;;5096729;28;20039;-80
2023/01/23 08:54:52;;;;;;;;;;;2.70;99.90;;;;;;5095068;28;19930;-80
2023/01/23 08:57:17;;;;;;;;;;;2.70;99.90;;;;;;5093685;28;19960;-80
2023/01/23 08:59:43;;;;;;;;;;;2.80;99.90;;;;;;5097753;28;19928;-80
2023/01/23 09:02:10;;;;;;;;;;;2.80;99.90;;;;;;5100136;28;19924;-80
2023/01/23 09:04:35;;;;;;;;;;;2.70;99.90;;;;;;5087627;28;19924;-80
2023/01/23 09:07:01;;;;;;;;;;;2.80;99.90;;;;;;5097022;28;19931;-81
2023/01/23 09:09:28;;;;;;;;;;;2.90;99.90;;;;;;5096759;28;19950;-80
2023/01/23 09:11:54;;;;;;;;;;;2.90;99.90;;;;;;5096287;28;19928;-80
2023/01/23 09:14:19;;;;;;;;;;;2.90;99.90;;;;;;5077773;28;19986;-80
2023/01/23 09:16:45;;;;;;;;;;;3.00;99.90;;;;;;5092530;28;19924;-80
2023/01/23 09:19:11;;;;;;;;;;;3.00;99.90;;;;;;5095024;28;19939;-80
2023/01/23 09:21:37;;;;;;;;;;;3.00;99.90;;;;;;5096046;28;19924;-80
2023/01/23 09:24:02;;;;;;;;;;;3.00;99.90;;;;;;5096818;28;19991;-80
2023/01/23 09:26:28;;;;;;;;;;;3.10;99.90;;;;;;5068889;28;19932;-80
2023/01/23 09:28:54;;;;;;;;;;;3.10;99.90;;;;;;5079889;28;20016;-80
2023/01/23 09:31:19;;;;;;;;;;;3.10;99.90;;;;;;5098261;28;20078;-80
2023/01/23 09:33:46;;;;;;;;;;;3.10;99.90;;;;;;5103194;28;19924;-80
2023/01/23 09:36:12;;;;;;;;;;;3.10;99.90;;;;;;5109421;28;20026;-80
2023/01/23 09:38:38;;;;;;;;;;;3.20;99.90;;;;;;5117368;28;20459;-80
2023/01/23 09:41:09;;;;;;;;;;;3.20;99.90;;;;;;5100767;28;19940;-80
2023/01/23 09:43:40;;;;;;;;;;;3.20;99.90;;;;;;5093557;28;19931;-80
2023/01/23 09:46:18;;;;;;;;;;;3.20;99.90;;;;;;5120298;28;19924;-80
2023/01/23 09:48:53;;;;;;;;;;;3.30;99.90;;;;;;5115638;28;19999;-80
2023/01/23 09:51:19;;;;;;;;;;;3.30;99.90;;;;;;5115390;28;19935;-80
2023/01/23 09:53:44;;;;;;;;;;;3.30;99.90;;;;;;5087826;28;19928;-81
2023/01/23 09:56:20;;;;;;;;;;;3.30;99.90;;;;;;5111724;28;19933;-80
2023/01/23 09:58:50;;;;;;;;;;;3.30;99.90;;;;;;5104835;28;19927;-81
2023/01/23 10:01:16;;;;;;;;;;;3.30;99.90;;;;;;5116033;28;19943;-80
2023/01/23 10:03:41;;;;;;;;;;;3.40;99.90;;;;;;5076850;28;19932;-80
2023/01/23 10:06:07;;;;;;;;;;;3.40;99.90;;;;;;5100276;28;20287;-81
2023/01/23 10:08:52;;;;;;;;;;;3.40;99.90;;;;;;5103904;28;19947;-81
2023/01/23 10:11:36;;;;;;;;;;;3.40;99.90;;;;;;5106219;28;19935;-81
2023/01/23 10:14:19;;;;;;;;;;;3.40;99.90;;;;;;5113040;28;19931;-81
2023/01/23 10:16:51;;;;;;;;;;;3.50;99.90;;;;;;5106137;28;20413;-81
2023/01/23 10:19:37;;;;;;;;;;;3.40;99.90;;;;;;5112509;28;19924;-81
2023/01/23 10:22:21;;;;;;;;;;;3.50;99.90;;;;;;5115164;28;19931;-81
2023/01/23 10:24:49;;;;;;;;;;;3.50;99.90;;;;;;5115860;28;20014;-81
2023/01/23 10:27:34;;;;;;;;;;;3.40;99.90;;;;;;5119826;28;19931;-81
2023/01/23 10:30:17;;;;;;;;;;;3.50;99.90;;;;;;5102848;28;19924;-81
2023/01/23 10:32:46;;;;;;;;;;;3.50;99.90;;;;;;5096349;28;19924;-81
2023/01/23 10:35:22;;;;;;;;;;;3.40;99.90;;;;;;5109314;28;20383;-80
2023/01/23 10:38:00;;;;;;;;;;;3.50;99.90;;;;;;5119361;28;19934;-81
2023/01/23 10:43:15;;;;;;;;;;;3.50;99.90;;;;;;5114934;28;19935;-81
2023/01/23 10:45:43;;;;;;;;;;;3.50;99.90;;;;;;5115798;28;19931;-81
2023/01/23 10:48:27;;;;;;;;;;;3.50;99.90;;;;;;5116077;28;19924;-81
2023/01/23 10:50:54;;;;;;;;;;;3.50;99.90;;;;;;5113883;28;20018;-81
2023/01/23 10:53:20;;;;;;;;;;;3.50;99.90;;;;;;5115220;28;19927;-80
2023/01/23 10:55:46;;;;;;;;;;;3.60;99.90;;;;;;5098705;28;19928;-80
2023/01/23 10:58:39;;;;;;;;;;;3.50;99.90;;;;;;5111155;28;19924;-81
2023/01/23 11:01:06;;;;;;;;;;;3.50;99.90;;;;;;5102913;28;19924;-81
2023/01/23 11:03:33;;;;;;;;;;;3.50;99.90;;;;;;5114615;28;19935;-81
2023/01/23 11:06:01;;;;;;;;;;;3.60;99.90;;;;;;5120170;28;19932;-81
2023/01/23 11:08:29;;;;;;;;;;;3.60;99.90;;;;;;5115032;28;19924;-81
2023/01/23 11:11:13;;;;;;;;;;;3.60;99.90;;;;;;5120425;28;20014;-80
2023/01/23 11:13:38;;;;;;;;;;;3.60;99.90;;;;;;5128893;27;20062;-80
2023/01/23 11:16:04;;;;;;;;;;;3.60;99.90;;;;;;5101160;28;19962;-81
2023/01/23 11:18:34;;;;;;;;;;;3.60;99.90;;;;;;5117596;28;19930;-81
2023/01/23 11:21:00;;;;;;;;;;;3.60;99.90;;;;;;5115201;28;19963;-80
2023/01/23 11:23:27;;;;;;;;;;;3.60;99.90;;;;;;5120761;28;19931;-80
2023/01/23 11:25:53;;;;;;;;;;;3.80;99.90;;;;;;5117090;28;19962;-80
2023/01/23 11:28:33;;;;;;;;;;;3.70;99.90;;;;;;5117199;28;19923;-80
2023/01/23 11:31:17;;;;;;;;;;;3.70;99.90;;;;;;5104600;28;19928;-80
2023/01/23 11:34:02;;;;;;;;;;;3.70;99.90;;;;;;5101616;28;19935;-80
2023/01/23 11:36:32;;;;;;;;;;;3.70;99.90;;;;;;5109815;28;20346;-81
2023/01/23 11:39:15;;;;;;;;;;;3.80;99.90;;;;;;5081666;28;19928;-80
2023/01/23 11:41:42;;;;;;;;;;;3.90;99.90;;;;;;5093672;28;19951;-80
2023/01/23 11:44:12;;;;;;;;;;;4.00;99.90;;;;;;5093125;28;19967;-80
2023/01/23 11:46:40;;;;;;;;;;;4.10;99.90;;;;;;5096957;28;19924;-80
2023/01/23 11:49:06;;;;;;;;;;;4.10;99.90;;;;;;5079438;28;19924;-80
2023/01/23 11:51:36;;;;;;;;;;;4.20;99.90;;;;;;5092206;28;19932;-81
2023/01/23 11:54:04;;;;;;;;;;;4.20;99.90;;;;;;5100299;28;20658;-81
2023/01/23 11:56:40;;;;;;;;;;;4.30;99.90;;;;;;5092804;28;19928;-81
2023/01/23 11:59:07;;;;;;;;;;;4.30;99.90;;;;;;5071712;28;20592;-80
2023/01/23 12:01:55;;;;;;;;;;;4.30;99.90;;;;;;5098425;28;19939;-80
2023/01/23 12:04:31;;;;;;;;;;;4.30;99.90;;;;;;5072600;28;19931;-79
2023/01/23 12:06:57;;;;;;;;;;;4.30;99.90;;;;;;5077579;28;19950;-80
2023/01/23 12:09:25;;;;;;;;;;;4.40;99.90;;;;;;5086064;28;20017;-80
2023/01/23 12:11:50;;;;;;;;;;;4.40;99.90;;;;;;5093032;28;19924;-80
2023/01/23 12:14:23;;;;;;;;;;;4.40;99.90;;;;;;5099027;28;19928;-80
2023/01/23 12:16:52;;;;;;;;;;;4.30;99.90;;;;;;5094919;28;19928;-80
2023/01/23 12:19:26;;;;;;;;;;;4.40;99.90;;;;;;5098174;28;20465;-81
2023/01/23 12:22:18;;;;;;;;;;;4.30;99.90;;;;;;5098878;28;19932;-81
2023/01/23 12:24:52;;;;;;;;;;;4.30;99.90;;;;;;5094211;28;19925;-81
2023/01/23 12:27:26;;;;;;;;;;;4.30;99.90;;;;;;5099376;28;19959;-81
2023/01/23 12:29:55;;;;;;;;;;;4.30;99.90;;;;;;5095055;28;19963;-80
2023/01/23 12:32:32;;;;;;;;;;;4.30;99.90;;;;;;5101742;28;20365;-80
2023/01/23 12:35:05;;;;;;;;;;;4.30;99.90;;;;;;5077414;28;20429;-81
2023/01/23 12:37:37;;;;;;;;;;;4.30;99.90;;;;;;5127981;27;19934;-81
2023/01/23 12:40:21;;;;;;;;;;;4.30;99.90;;;;;;5097899;27;19962;-80
2023/01/23 12:42:49;;;;;;;;;;;4.30;99.90;;;;;;5114069;27;19950;-80
2023/01/23 12:45:21;;;;;;;;;;;4.30;99.90;;;;;;5122132;27;19924;-80
2023/01/23 12:47:57;;;;;;;;;;;4.30;99.90;;;;;;5116920;27;19923;-80
2023/01/23 12:50:34;;;;;;;;;;;4.30;99.90;;;;;;5102013;27;19999;-80
2023/01/23 12:53:04;;;;;;;;;;;4.20;99.90;;;;;;5115044;27;19923;-80
2023/01/23 12:55:33;;;;;;;;;;;4.20;99.90;;;;;;5119406;27;19923;-80
2023/01/23 12:57:59;;;;;;;;;;;4.20;99.90;;;;;;5114751;27;19928;-80
2023/01/23 13:00:43;;;;;;;;;;;4.30;99.90;;;;;;5103049;27;19935;-81
2023/01/23 13:03:33;;;;;;;;;;;4.30;99.90;;;;;;5120997;27;20085;-81
2023/01/23 13:05:58;;;;;;;;;;;4.40;99.90;;;;;;5120916;27;19976;-81
2023/01/23 13:08:33;;;;;;;;;;;4.40;99.90;;;;;;5111284;27;19927;-81
2023/01/23 13:13:46;;;;;;;;;;;4.30;99.90;;;;;;5135154;27;19923;-81
2023/01/23 13:16:13;;;;;;;;;;;4.30;99.90;;;;;;5121155;27;19931;-81
2023/01/23 13:25:08;;;;;;;;;;;4.20;99.90;;;;;;5121178;27;19923;-81
2023/01/23 13:27:24;;;;;;;;;;;4.30;99.90;;;;;;5119018;27;19923;-81
2023/01/23 13:29:50;;;;;;;;;;;4.30;99.90;;;;;;5120579;27;19923;-81
2023/01/23 13:32:21;;;;;;;;;;;4.20;99.90;;;;;;5111067;28;20046;-81
2023/01/23 13:34:46;;;;;;;;;;;4.30;99.90;;;;;;5119004;27;19923;-80
2023/01/23 13:37:27;;;;;;;;;;;4.20;99.90;;;;;;5120830;27;19923;-81
2023/01/23 13:40:13;;;;;;;;;;;4.20;99.90;;;;;;5122206;27;19923;-81
2023/01/23 13:42:38;;;;;;;;;;;4.20;99.90;;;;;;5112625;28;19929;-81
2023/01/23 13:45:34;;;;;;;;;;;4.20;99.90;;;;;;5121325;27;19923;-81
2023/01/23 13:50:47;;;;;;;;;;;4.20;99.90;;;;;;5139769;27;20017;-80
2023/01/23 13:58:48;;;;;;;;;;;4.20;99.90;;;;;;5139431;27;19932;-81
2023/01/23 14:06:55;;;;;;;;;;;4.10;99.90;;;;;;5113614;28;20014;-81
2023/01/23 14:09:21;;;;;;;;;;;4.10;99.90;;;;;;5103924;28;19928;-81
2023/01/23 14:11:48;;;;;;;;;;;4.10;99.90;;;;;;5116446;28;19930;-82
2023/01/23 14:16:58;;;;;;;;;;;4.10;99.90;;;;;;5108779;28;19986;-82
2023/01/23 14:19:24;;;;;;;;;;;4.00;99.90;;;;;;5102564;28;19923;-82
2023/01/23 14:21:53;;;;;;;;;;;4.10;99.90;;;;;;5120116;28;20416;-81
2023/01/23 14:24:39;;;;;;;;;;;4.10;99.90;;;;;;5118160;28;19924;-81
2023/01/23 14:27:08;;;;;;;;;;;4.10;99.90;;;;;;5091185;28;19923;-81
2023/01/23 14:29:34;;;;;;;;;;;4.10;99.90;;;;;;5134726;27;19924;-81
2023/01/23 14:32:00;;;;;;;;;;;4.00;99.90;;;;;;5122209;28;19924;-82
2023/01/23 14:34:26;;;;;;;;;;;4.00;99.90;;;;;;5102226;28;19977;-82
2023/01/23 14:37:10;;;;;;;;;;;4.00;99.90;;;;;;5122992;28;19927;-81
2023/01/23 14:39:36;;;;;;;;;;;4.00;99.90;;;;;;5119627;27;19948;-81
2023/01/23 14:42:02;;;;;;;;;;;3.90;99.90;;;;;;5083661;28;19971;-81
2023/01/23 14:44:37;;;;;;;;;;;3.90;99.90;;;;;;5104321;28;19974;-81
2023/01/23 14:47:03;;;;;;;;;;;3.90;99.90;;;;;;5106653;28;20346;-81
2023/01/23 14:49:31;;;;;;;;;;;4.00;99.90;;;;;;5119544;28;19930;-81
2023/01/23 14:52:04;;;;;;;;;;;4.00;99.90;;;;;;5120586;28;19969;-81
2023/01/23 14:54:31;;;;;;;;;;;3.90;99.90;;;;;;5120930;28;20290;-81
2023/01/23 14:56:57;;;;;;;;;;;3.90;99.90;;;;;;5100729;28;19931;-81
2023/01/23 14:59:23;;;;;;;;;;;3.90;99.90;;;;;;5088500;28;19963;-81
2023/01/23 15:01:52;;;;;;;;;;;3.90;99.90;;;;;;5110137;28;19938;-81
2023/01/23 15:04:22;;;;;;;;;;;3.90;99.90;;;;;;5093769;28;19953;-81
2023/01/23 15:06:52;;;;;;;;;;;3.90;99.90;;;;;;5137693;28;19987;-81
2023/01/23 15:09:20;;;;;;;;;;;3.90;99.90;;;;;;5120786;28;19924;-81
2023/01/23 15:11:45;;;;;;;;;;;3.80;99.90;;;;;;5122643;27;20033;-81